sensor_id;sensor_type;location;lat;lon;timestamp;P1;durP1;ratioP1;P2;durP2;ratioP2
49123;SDS011;48506;48.202;16.274;2023-03-31T00:00:55;4.43;;;1.50;;
49123;SDS011;48506;48.202;16.274;2023-03-31T00:03:22;3.53;;;1.05;;
49123;SDS011;48506;48.202;16.274;2023-03-31T00:05:53;3.30;;;1.13;;
49123;SDS011;48506;48.202;16.274;2023-03-31T00:08:23;2.95;;;1.10;;
49123;SDS011;48506;48.202;16.274;2023-03-31T00:10:57;3.10;;;1.00;;
49123;SDS011;48506;48.202;16.274;2023-03-31T00:13:25;1.90;;;0.88;;
49123;SDS011;48506;48.202;16.274;2023-03-31T00:15:57;1.52;;;0.90;;
49123;SDS011;48506;48.202;16.274;2023-03-31T00:18:25;5.22;;;1.33;;
49123;SDS011;48506;48.202;16.274;2023-03-31T00:20:52;2.38;;;1.15;;
49123;SDS011;48506;48.202;16.274;2023-03-31T00:23:18;3.60;;;1.20;;
49123;SDS011;48506;48.202;16.274;2023-03-31T00:25:53;2.35;;;1.13;;
49123;SDS011;48506;48.202;16.274;2023-03-31T00:28:20;2.35;;;1.30;;
49123;SDS011;48506;48.202;16.274;2023-03-31T00:30:46;2.00;;;1.05;;
49123;SDS011;48506;48.202;16.274;2023-03-31T00:33:12;2.28;;;1.10;;
49123;SDS011;48506;48.202;16.274;2023-03-31T00:35:38;1.52;;;1.02;;
49123;SDS011;48506;48.202;16.274;2023-03-31T00:38:05;3.22;;;1.23;;
49123;SDS011;48506;48.202;16.274;2023-03-31T00:40:34;3.13;;;1.10;;
49123;SDS011;48506;48.202;16.274;2023-03-31T00:43:00;1.30;;;0.93;;
49123;SDS011;48506;48.202;16.274;2023-03-31T00:45:28;1.15;;;0.98;;
49123;SDS011;48506;48.202;16.274;2023-03-31T00:50:36;2.63;;;1.17;;
49123;SDS011;48506;48.202;16.274;2023-03-31T00:53:13;2.33;;;1.27;;
49123;SDS011;48506;48.202;16.274;2023-03-31T00:55:50;1.42;;;1.10;;
49123;SDS011;48506;48.202;16.274;2023-03-31T00:58:19;4.88;;;1.55;;
49123;SDS011;48506;48.202;16.274;2023-03-31T01:00:53;1.83;;;1.13;;
49123;SDS011;48506;48.202;16.274;2023-03-31T01:03:22;2.85;;;1.02;;
49123;SDS011;48506;48.202;16.274;2023-03-31T01:05:56;2.47;;;1.40;;
49123;SDS011;48506;48.202;16.274;2023-03-31T01:08:31;2.97;;;1.40;;
49123;SDS011;48506;48.202;16.274;2023-03-31T01:11:02;2.83;;;1.60;;
49123;SDS011;48506;48.202;16.274;2023-03-31T01:13:31;3.92;;;1.30;;
49123;SDS011;48506;48.202;16.274;2023-03-31T01:16:01;3.92;;;1.98;;
49123;SDS011;48506;48.202;16.274;2023-03-31T01:18:27;3.25;;;1.40;;
49123;SDS011;48506;48.202;16.274;2023-03-31T01:21:10;3.30;;;1.40;;
49123;SDS011;48506;48.202;16.274;2023-03-31T01:51:14;5.60;;;2.63;;
49123;SDS011;48506;48.202;16.274;2023-03-31T01:54:03;6.63;;;2.38;;
49123;SDS011;48506;48.202;16.274;2023-03-31T01:56:38;10.88;;;3.42;;
49123;SDS011;48506;48.202;16.274;2023-03-31T01:59:11;4.70;;;2.60;;
49123;SDS011;48506;48.202;16.274;2023-03-31T02:01:43;4.50;;;2.53;;
49123;SDS011;48506;48.202;16.274;2023-03-31T02:04:15;7.22;;;2.67;;
49123;SDS011;48506;48.202;16.274;2023-03-31T02:06:52;3.17;;;2.13;;
49123;SDS011;48506;48.202;16.274;2023-03-31T02:09:23;6.00;;;2.60;;
49123;SDS011;48506;48.202;16.274;2023-03-31T02:11:53;4.95;;;2.65;;
49123;SDS011;48506;48.202;16.274;2023-03-31T02:14:23;3.50;;;2.25;;
49123;SDS011;48506;48.202;16.274;2023-03-31T02:16:56;6.43;;;2.42;;
49123;SDS011;48506;48.202;16.274;2023-03-31T02:19:28;12.25;;;3.85;;
49123;SDS011;48506;48.202;16.274;2023-03-31T02:21:58;4.75;;;2.80;;
49123;SDS011;48506;48.202;16.274;2023-03-31T02:24:27;3.22;;;2.20;;
49123;SDS011;48506;48.202;16.274;2023-03-31T02:27:02;4.22;;;2.50;;
49123;SDS011;48506;48.202;16.274;2023-03-31T02:29:29;3.72;;;2.75;;
49123;SDS011;48506;48.202;16.274;2023-03-31T02:34:38;7.57;;;3.05;;
49123;SDS011;48506;48.202;16.274;2023-03-31T02:37:04;6.68;;;3.13;;
49123;SDS011;48506;48.202;16.274;2023-03-31T02:39:33;5.85;;;2.72;;
49123;SDS011;48506;48.202;16.274;2023-03-31T02:42:02;6.70;;;3.08;;
49123;SDS011;48506;48.202;16.274;2023-03-31T02:44:35;9.23;;;3.27;;
49123;SDS011;48506;48.202;16.274;2023-03-31T02:47:02;5.57;;;3.03;;
49123;SDS011;48506;48.202;16.274;2023-03-31T02:49:33;7.57;;;3.13;;
49123;SDS011;48506;48.202;16.274;2023-03-31T03:11:38;7.28;;;3.47;;
49123;SDS011;48506;48.202;16.274;2023-03-31T03:20:01;4.35;;;3.20;;
49123;SDS011;48506;48.202;16.274;2023-03-31T03:22:34;5.50;;;2.72;;
49123;SDS011;48506;48.202;16.274;2023-03-31T03:25:01;5.63;;;2.40;;
49123;SDS011;48506;48.202;16.274;2023-03-31T03:27:29;6.25;;;2.70;;
49123;SDS011;48506;48.202;16.274;2023-03-31T03:29:55;4.88;;;2.80;;
49123;SDS011;48506;48.202;16.274;2023-03-31T03:32:20;9.25;;;2.92;;
49123;SDS011;48506;48.202;16.274;2023-03-31T03:34:47;4.65;;;3.10;;
49123;SDS011;48506;48.202;16.274;2023-03-31T03:37:12;7.40;;;3.53;;
49123;SDS011;48506;48.202;16.274;2023-03-31T03:39:38;4.35;;;2.88;;
49123;SDS011;48506;48.202;16.274;2023-03-31T03:42:04;7.18;;;2.63;;
49123;SDS011;48506;48.202;16.274;2023-03-31T03:44:31;5.90;;;3.05;;
49123;SDS011;48506;48.202;16.274;2023-03-31T03:46:57;5.47;;;2.90;;
49123;SDS011;48506;48.202;16.274;2023-03-31T03:49:24;5.50;;;2.83;;
49123;SDS011;48506;48.202;16.274;2023-03-31T03:51:49;5.53;;;3.53;;
49123;SDS011;48506;48.202;16.274;2023-03-31T03:54:16;5.43;;;2.72;;
49123;SDS011;48506;48.202;16.274;2023-03-31T03:56:41;7.90;;;2.88;;
49123;SDS011;48506;48.202;16.274;2023-03-31T03:59:08;5.10;;;3.13;;
49123;SDS011;48506;48.202;16.274;2023-03-31T04:01:36;4.85;;;3.33;;
49123;SDS011;48506;48.202;16.274;2023-03-31T04:04:02;3.38;;;2.58;;
49123;SDS011;48506;48.202;16.274;2023-03-31T04:06:28;5.07;;;2.88;;
49123;SDS011;48506;48.202;16.274;2023-03-31T04:08:55;6.97;;;3.15;;
49123;SDS011;48506;48.202;16.274;2023-03-31T04:11:21;7.68;;;2.97;;
49123;SDS011;48506;48.202;16.274;2023-03-31T04:13:47;6.65;;;3.15;;
49123;SDS011;48506;48.202;16.274;2023-03-31T04:16:12;5.45;;;2.95;;
49123;SDS011;48506;48.202;16.274;2023-03-31T04:18:41;5.22;;;3.47;;
49123;SDS011;48506;48.202;16.274;2023-03-31T04:21:10;5.13;;;3.25;;
49123;SDS011;48506;48.202;16.274;2023-03-31T04:23:40;5.82;;;2.67;;
49123;SDS011;48506;48.202;16.274;2023-03-31T04:26:13;4.78;;;2.85;;
49123;SDS011;48506;48.202;16.274;2023-03-31T04:28:41;5.10;;;2.85;;
49123;SDS011;48506;48.202;16.274;2023-03-31T04:31:12;5.45;;;2.90;;
49123;SDS011;48506;48.202;16.274;2023-03-31T04:33:52;8.50;;;4.38;;
49123;SDS011;48506;48.202;16.274;2023-03-31T04:38:49;4.68;;;3.15;;
49123;SDS011;48506;48.202;16.274;2023-03-31T04:41:19;7.63;;;3.83;;
49123;SDS011;48506;48.202;16.274;2023-03-31T04:43:46;7.47;;;2.97;;
49123;SDS011;48506;48.202;16.274;2023-03-31T04:46:13;3.97;;;3.00;;
49123;SDS011;48506;48.202;16.274;2023-03-31T04:48:39;5.93;;;2.78;;
49123;SDS011;48506;48.202;16.274;2023-03-31T04:51:06;20.70;;;4.22;;
49123;SDS011;48506;48.202;16.274;2023-03-31T04:53:33;6.22;;;2.97;;
49123;SDS011;48506;48.202;16.274;2023-03-31T04:55:59;4.63;;;2.97;;
49123;SDS011;48506;48.202;16.274;2023-03-31T04:58:26;4.72;;;3.03;;
49123;SDS011;48506;48.202;16.274;2023-03-31T05:00:52;6.78;;;3.33;;
49123;SDS011;48506;48.202;16.274;2023-03-31T05:03:18;7.82;;;3.33;;
49123;SDS011;48506;48.202;16.274;2023-03-31T05:05:46;6.53;;;3.63;;
49123;SDS011;48506;48.202;16.274;2023-03-31T05:08:12;7.90;;;3.13;;
49123;SDS011;48506;48.202;16.274;2023-03-31T05:10:38;7.38;;;3.72;;
49123;SDS011;48506;48.202;16.274;2023-03-31T05:13:04;4.72;;;3.30;;
49123;SDS011;48506;48.202;16.274;2023-03-31T05:15:30;6.38;;;3.53;;
49123;SDS011;48506;48.202;16.274;2023-03-31T05:17:57;8.40;;;3.72;;
49123;SDS011;48506;48.202;16.274;2023-03-31T05:20:23;8.63;;;3.30;;
49123;SDS011;48506;48.202;16.274;2023-03-31T05:22:49;5.78;;;3.08;;
49123;SDS011;48506;48.202;16.274;2023-03-31T05:25:15;7.97;;;3.10;;
49123;SDS011;48506;48.202;16.274;2023-03-31T05:27:46;7.18;;;3.25;;
49123;SDS011;48506;48.202;16.274;2023-03-31T05:30:14;8.20;;;5.38;;
49123;SDS011;48506;48.202;16.274;2023-03-31T05:32:40;8.45;;;6.78;;
49123;SDS011;48506;48.202;16.274;2023-03-31T05:35:07;7.20;;;5.15;;
49123;SDS011;48506;48.202;16.274;2023-03-31T05:37:33;9.88;;;5.38;;
49123;SDS011;48506;48.202;16.274;2023-03-31T05:40:00;8.32;;;4.38;;
49123;SDS011;48506;48.202;16.274;2023-03-31T05:42:29;8.13;;;3.95;;
49123;SDS011;48506;48.202;16.274;2023-03-31T05:44:55;10.38;;;4.47;;
49123;SDS011;48506;48.202;16.274;2023-03-31T05:47:21;6.00;;;3.20;;
49123;SDS011;48506;48.202;16.274;2023-03-31T05:49:47;6.32;;;3.60;;
49123;SDS011;48506;48.202;16.274;2023-03-31T05:52:14;7.57;;;3.53;;
49123;SDS011;48506;48.202;16.274;2023-03-31T05:54:40;5.18;;;3.28;;
49123;SDS011;48506;48.202;16.274;2023-03-31T05:57:07;5.90;;;3.78;;
49123;SDS011;48506;48.202;16.274;2023-03-31T05:59:34;4.80;;;3.22;;
49123;SDS011;48506;48.202;16.274;2023-03-31T06:02:01;4.75;;;4.03;;
49123;SDS011;48506;48.202;16.274;2023-03-31T06:04:27;5.30;;;4.60;;
49123;SDS011;48506;48.202;16.274;2023-03-31T06:06:53;7.80;;;4.05;;
49123;SDS011;48506;48.202;16.274;2023-03-31T06:09:20;6.53;;;4.22;;
49123;SDS011;48506;48.202;16.274;2023-03-31T06:11:47;7.78;;;4.53;;
49123;SDS011;48506;48.202;16.274;2023-03-31T06:14:13;10.32;;;4.50;;
49123;SDS011;48506;48.202;16.274;2023-03-31T06:16:39;12.27;;;4.80;;
49123;SDS011;48506;48.202;16.274;2023-03-31T06:19:05;11.25;;;5.05;;
49123;SDS011;48506;48.202;16.274;2023-03-31T06:21:31;12.15;;;5.18;;
49123;SDS011;48506;48.202;16.274;2023-03-31T06:23:57;9.82;;;5.13;;
49123;SDS011;48506;48.202;16.274;2023-03-31T06:26:25;11.13;;;6.43;;
49123;SDS011;48506;48.202;16.274;2023-03-31T06:28:51;14.25;;;7.07;;
49123;SDS011;48506;48.202;16.274;2023-03-31T06:31:18;11.23;;;7.30;;
49123;SDS011;48506;48.202;16.274;2023-03-31T06:33:46;14.00;;;7.40;;
49123;SDS011;48506;48.202;16.274;2023-03-31T06:36:14;10.60;;;6.32;;
49123;SDS011;48506;48.202;16.274;2023-03-31T06:38:42;13.13;;;5.95;;
49123;SDS011;48506;48.202;16.274;2023-03-31T06:41:11;12.13;;;6.25;;
49123;SDS011;48506;48.202;16.274;2023-03-31T06:43:38;10.57;;;4.78;;
49123;SDS011;48506;48.202;16.274;2023-03-31T06:46:04;15.13;;;6.53;;
49123;SDS011;48506;48.202;16.274;2023-03-31T06:48:32;13.98;;;6.75;;
49123;SDS011;48506;48.202;16.274;2023-03-31T06:51:00;9.23;;;5.60;;
49123;SDS011;48506;48.202;16.274;2023-03-31T06:53:28;10.82;;;5.55;;
49123;SDS011;48506;48.202;16.274;2023-03-31T06:55:56;7.15;;;5.13;;
49123;SDS011;48506;48.202;16.274;2023-03-31T06:58:22;11.13;;;4.97;;
49123;SDS011;48506;48.202;16.274;2023-03-31T07:00:48;6.88;;;4.60;;
49123;SDS011;48506;48.202;16.274;2023-03-31T07:03:14;9.82;;;4.78;;
49123;SDS011;48506;48.202;16.274;2023-03-31T07:05:47;9.80;;;5.00;;
49123;SDS011;48506;48.202;16.274;2023-03-31T07:08:14;10.98;;;4.95;;
49123;SDS011;48506;48.202;16.274;2023-03-31T07:10:44;16.58;;;8.85;;
49123;SDS011;48506;48.202;16.274;2023-03-31T07:13:13;11.38;;;5.45;;
49123;SDS011;48506;48.202;16.274;2023-03-31T07:15:43;13.35;;;4.85;;
49123;SDS011;48506;48.202;16.274;2023-03-31T07:18:11;9.38;;;4.57;;
49123;SDS011;48506;48.202;16.274;2023-03-31T07:20:39;12.68;;;5.13;;
49123;SDS011;48506;48.202;16.274;2023-03-31T07:23:06;9.30;;;4.55;;
49123;SDS011;48506;48.202;16.274;2023-03-31T07:25:33;9.23;;;5.28;;
49123;SDS011;48506;48.202;16.274;2023-03-31T07:28:02;9.23;;;4.70;;
49123;SDS011;48506;48.202;16.274;2023-03-31T07:30:30;8.37;;;4.17;;
49123;SDS011;48506;48.202;16.274;2023-03-31T07:32:56;10.90;;;4.43;;
49123;SDS011;48506;48.202;16.274;2023-03-31T07:35:22;5.88;;;4.75;;
49123;SDS011;48506;48.202;16.274;2023-03-31T07:37:49;11.45;;;4.45;;
49123;SDS011;48506;48.202;16.274;2023-03-31T07:40:20;13.23;;;6.57;;
49123;SDS011;48506;48.202;16.274;2023-03-31T07:42:49;9.93;;;5.32;;
49123;SDS011;48506;48.202;16.274;2023-03-31T07:45:17;7.25;;;4.75;;
49123;SDS011;48506;48.202;16.274;2023-03-31T07:47:47;6.13;;;4.45;;
49123;SDS011;48506;48.202;16.274;2023-03-31T07:50:14;13.48;;;4.75;;
49123;SDS011;48506;48.202;16.274;2023-03-31T07:52:40;9.77;;;5.03;;
49123;SDS011;48506;48.202;16.274;2023-03-31T07:55:07;8.63;;;4.25;;
49123;SDS011;48506;48.202;16.274;2023-03-31T07:57:35;7.10;;;3.85;;
49123;SDS011;48506;48.202;16.274;2023-03-31T08:00:04;6.65;;;3.28;;
49123;SDS011;48506;48.202;16.274;2023-03-31T08:02:33;7.97;;;3.97;;
49123;SDS011;48506;48.202;16.274;2023-03-31T08:05:00;9.90;;;4.78;;
49123;SDS011;48506;48.202;16.274;2023-03-31T08:07:27;7.80;;;4.50;;
49123;SDS011;48506;48.202;16.274;2023-03-31T08:09:55;10.40;;;5.03;;
49123;SDS011;48506;48.202;16.274;2023-03-31T08:12:23;8.57;;;5.03;;
49123;SDS011;48506;48.202;16.274;2023-03-31T08:14:49;8.32;;;4.40;;
49123;SDS011;48506;48.202;16.274;2023-03-31T08:17:16;8.35;;;4.65;;
49123;SDS011;48506;48.202;16.274;2023-03-31T08:19:42;11.35;;;4.60;;
49123;SDS011;48506;48.202;16.274;2023-03-31T08:22:08;8.88;;;4.15;;
49123;SDS011;48506;48.202;16.274;2023-03-31T08:24:34;9.20;;;4.13;;
49123;SDS011;48506;48.202;16.274;2023-03-31T08:27:00;10.50;;;4.57;;
49123;SDS011;48506;48.202;16.274;2023-03-31T08:29:26;9.07;;;4.07;;
49123;SDS011;48506;48.202;16.274;2023-03-31T08:31:52;8.25;;;3.97;;
49123;SDS011;48506;48.202;16.274;2023-03-31T08:34:19;9.75;;;3.70;;
49123;SDS011;48506;48.202;16.274;2023-03-31T08:36:45;7.85;;;3.58;;
49123;SDS011;48506;48.202;16.274;2023-03-31T08:39:11;8.93;;;3.45;;
49123;SDS011;48506;48.202;16.274;2023-03-31T08:41:41;6.60;;;3.22;;
49123;SDS011;48506;48.202;16.274;2023-03-31T08:47:04;8.77;;;3.97;;
49123;SDS011;48506;48.202;16.274;2023-03-31T08:49:42;5.30;;;3.20;;
49123;SDS011;48506;48.202;16.274;2023-03-31T08:52:14;4.63;;;3.05;;
49123;SDS011;48506;48.202;16.274;2023-03-31T08:54:51;8.05;;;3.35;;
49123;SDS011;48506;48.202;16.274;2023-03-31T08:57:31;9.43;;;3.72;;
49123;SDS011;48506;48.202;16.274;2023-03-31T09:00:08;7.97;;;3.75;;
49123;SDS011;48506;48.202;16.274;2023-03-31T09:03:14;6.85;;;3.58;;
49123;SDS011;48506;48.202;16.274;2023-03-31T09:06:02;6.78;;;3.40;;
49123;SDS011;48506;48.202;16.274;2023-03-31T09:08:38;6.38;;;3.60;;
49123;SDS011;48506;48.202;16.274;2023-03-31T09:11:13;8.63;;;3.88;;
49123;SDS011;48506;48.202;16.274;2023-03-31T09:14:05;7.00;;;3.63;;
49123;SDS011;48506;48.202;16.274;2023-03-31T09:17:15;10.55;;;4.38;;
49123;SDS011;48506;48.202;16.274;2023-03-31T09:20:45;6.80;;;3.10;;
49123;SDS011;48506;48.202;16.274;2023-03-31T09:22:56;5.18;;;3.00;;
49123;SDS011;48506;48.202;16.274;2023-03-31T09:25:36;10.15;;;3.42;;
49123;SDS011;48506;48.202;16.274;2023-03-31T09:28:09;8.18;;;3.30;;
49123;SDS011;48506;48.202;16.274;2023-03-31T09:30:44;7.22;;;3.40;;
49123;SDS011;48506;48.202;16.274;2023-03-31T09:33:27;7.13;;;4.05;;
49123;SDS011;48506;48.202;16.274;2023-03-31T09:35:59;8.25;;;3.28;;
49123;SDS011;48506;48.202;16.274;2023-03-31T09:38:27;6.55;;;3.58;;
49123;SDS011;48506;48.202;16.274;2023-03-31T09:40:58;8.48;;;3.00;;
49123;SDS011;48506;48.202;16.274;2023-03-31T09:43:28;6.97;;;3.67;;
49123;SDS011;48506;48.202;16.274;2023-03-31T09:45:56;7.07;;;3.60;;
49123;SDS011;48506;48.202;16.274;2023-03-31T09:48:24;6.82;;;2.90;;
49123;SDS011;48506;48.202;16.274;2023-03-31T09:50:55;6.70;;;3.30;;
49123;SDS011;48506;48.202;16.274;2023-03-31T09:53:37;4.97;;;3.38;;
49123;SDS011;48506;48.202;16.274;2023-03-31T09:56:08;8.13;;;3.25;;
49123;SDS011;48506;48.202;16.274;2023-03-31T09:58:42;5.85;;;3.28;;
49123;SDS011;48506;48.202;16.274;2023-03-31T10:01:13;8.00;;;2.90;;
49123;SDS011;48506;48.202;16.274;2023-03-31T10:03:49;6.60;;;2.90;;
49123;SDS011;48506;48.202;16.274;2023-03-31T10:06:21;9.30;;;3.80;;
49123;SDS011;48506;48.202;16.274;2023-03-31T10:08:56;5.85;;;2.83;;
49123;SDS011;48506;48.202;16.274;2023-03-31T10:11:26;6.60;;;3.63;;
49123;SDS011;48506;48.202;16.274;2023-03-31T10:13:59;6.78;;;3.30;;
49123;SDS011;48506;48.202;16.274;2023-03-31T10:16:32;5.15;;;3.28;;
49123;SDS011;48506;48.202;16.274;2023-03-31T10:19:11;6.20;;;3.10;;
49123;SDS011;48506;48.202;16.274;2023-03-31T10:21:41;6.85;;;2.90;;
49123;SDS011;48506;48.202;16.274;2023-03-31T10:24:21;6.00;;;3.47;;
49123;SDS011;48506;48.202;16.274;2023-03-31T10:26:47;8.70;;;3.75;;
49123;SDS011;48506;48.202;16.274;2023-03-31T10:29:29;11.35;;;3.63;;
49123;SDS011;48506;48.202;16.274;2023-03-31T10:32:21;7.57;;;3.40;;
49123;SDS011;48506;48.202;16.274;2023-03-31T10:34:45;10.25;;;4.85;;
49123;SDS011;48506;48.202;16.274;2023-03-31T10:37:12;7.50;;;3.55;;
49123;SDS011;48506;48.202;16.274;2023-03-31T10:39:44;8.27;;;5.40;;
49123;SDS011;48506;48.202;16.274;2023-03-31T10:42:18;9.18;;;4.25;;
49123;SDS011;48506;48.202;16.274;2023-03-31T10:44:54;6.18;;;3.83;;
49123;SDS011;48506;48.202;16.274;2023-03-31T10:47:38;9.35;;;3.90;;
49123;SDS011;48506;48.202;16.274;2023-03-31T10:50:12;5.93;;;3.58;;
49123;SDS011;48506;48.202;16.274;2023-03-31T10:52:44;7.20;;;4.03;;
49123;SDS011;48506;48.202;16.274;2023-03-31T10:55:12;4.63;;;3.55;;
49123;SDS011;48506;48.202;16.274;2023-03-31T10:57:54;17.95;;;10.75;;
49123;SDS011;48506;48.202;16.274;2023-03-31T11:00:49;11.93;;;7.47;;
49123;SDS011;48506;48.202;16.274;2023-03-31T11:03:29;8.48;;;3.45;;
49123;SDS011;48506;48.202;16.274;2023-03-31T11:06:15;7.95;;;3.92;;
49123;SDS011;48506;48.202;16.274;2023-03-31T11:20:07;10.43;;;4.68;;
49123;SDS011;48506;48.202;16.274;2023-03-31T11:22:43;6.65;;;4.03;;
49123;SDS011;48506;48.202;16.274;2023-03-31T11:31:00;5.25;;;3.58;;
49123;SDS011;48506;48.202;16.274;2023-03-31T11:36:28;5.15;;;3.30;;
49123;SDS011;48506;48.202;16.274;2023-03-31T11:41:38;5.43;;;3.33;;
49123;SDS011;48506;48.202;16.274;2023-03-31T11:44:19;6.03;;;3.58;;
49123;SDS011;48506;48.202;16.274;2023-03-31T11:46:52;4.93;;;3.30;;
49123;SDS011;48506;48.202;16.274;2023-03-31T11:49:27;4.30;;;2.92;;
49123;SDS011;48506;48.202;16.274;2023-03-31T11:51:58;8.40;;;3.13;;
49123;SDS011;48506;48.202;16.274;2023-03-31T11:54:33;4.07;;;3.13;;
49123;SDS011;48506;48.202;16.274;2023-03-31T11:57:01;7.75;;;3.00;;
49123;SDS011;48506;48.202;16.274;2023-03-31T11:59:38;5.22;;;3.05;;
49123;SDS011;48506;48.202;16.274;2023-03-31T12:07:28;3.42;;;2.83;;
49123;SDS011;48506;48.202;16.274;2023-03-31T12:21:39;3.40;;;2.90;;
49123;SDS011;48506;48.202;16.274;2023-03-31T12:24:12;4.15;;;2.85;;
49123;SDS011;48506;48.202;16.274;2023-03-31T12:29:41;7.88;;;4.30;;
49123;SDS011;48506;48.202;16.274;2023-03-31T12:32:15;4.50;;;3.13;;
49123;SDS011;48506;48.202;16.274;2023-03-31T12:34:56;4.75;;;2.92;;
49123;SDS011;48506;48.202;16.274;2023-03-31T12:40:42;4.55;;;2.95;;
49123;SDS011;48506;48.202;16.274;2023-03-31T12:49:25;4.25;;;2.55;;
49123;SDS011;48506;48.202;16.274;2023-03-31T12:57:20;4.75;;;2.60;;
49123;SDS011;48506;48.202;16.274;2023-03-31T13:02:38;4.10;;;2.58;;
49123;SDS011;48506;48.202;16.274;2023-03-31T13:08:05;7.00;;;2.60;;
49123;SDS011;48506;48.202;16.274;2023-03-31T13:10:33;5.15;;;2.40;;
49123;SDS011;48506;48.202;16.274;2023-03-31T13:13:15;3.53;;;3.15;;
49123;SDS011;48506;48.202;16.274;2023-03-31T13:15:51;2.88;;;2.40;;
49123;SDS011;48506;48.202;16.274;2023-03-31T13:18:20;5.85;;;2.38;;
49123;SDS011;48506;48.202;16.274;2023-03-31T13:21:00;3.67;;;2.17;;
49123;SDS011;48506;48.202;16.274;2023-03-31T13:23:31;6.03;;;3.08;;
49123;SDS011;48506;48.202;16.274;2023-03-31T13:26:01;2.60;;;2.17;;
49123;SDS011;48506;48.202;16.274;2023-03-31T13:28:32;4.50;;;1.90;;
49123;SDS011;48506;48.202;16.274;2023-03-31T13:31:08;6.38;;;1.85;;
49123;SDS011;48506;48.202;16.274;2023-03-31T13:33:53;2.63;;;1.90;;
49123;SDS011;48506;48.202;16.274;2023-03-31T13:36:31;4.80;;;1.80;;
49123;SDS011;48506;48.202;16.274;2023-03-31T13:39:41;5.68;;;2.20;;
49123;SDS011;48506;48.202;16.274;2023-03-31T13:42:19;2.92;;;1.75;;
49123;SDS011;48506;48.202;16.274;2023-03-31T14:04:46;4.40;;;1.80;;
49123;SDS011;48506;48.202;16.274;2023-03-31T14:07:37;3.28;;;1.88;;
49123;SDS011;48506;48.202;16.274;2023-03-31T14:10:36;2.45;;;2.10;;
49123;SDS011;48506;48.202;16.274;2023-03-31T14:13:09;3.78;;;1.90;;
49123;SDS011;48506;48.202;16.274;2023-03-31T14:16:00;2.60;;;1.85;;
49123;SDS011;48506;48.202;16.274;2023-03-31T14:18:29;2.33;;;1.65;;
49123;SDS011;48506;48.202;16.274;2023-03-31T14:26:29;1.95;;;1.70;;
49123;SDS011;48506;48.202;16.274;2023-03-31T14:29:11;3.00;;;1.83;;
49123;SDS011;48506;48.202;16.274;2023-03-31T14:31:51;3.63;;;1.85;;
49123;SDS011;48506;48.202;16.274;2023-03-31T14:37:38;3.53;;;1.85;;
49123;SDS011;48506;48.202;16.274;2023-03-31T14:40:05;3.30;;;2.13;;
49123;SDS011;48506;48.202;16.274;2023-03-31T14:42:38;5.63;;;2.13;;
49123;SDS011;48506;48.202;16.274;2023-03-31T14:45:06;4.10;;;2.53;;
49123;SDS011;48506;48.202;16.274;2023-03-31T14:47:55;3.20;;;2.08;;
49123;SDS011;48506;48.202;16.274;2023-03-31T14:50:28;3.00;;;2.28;;
49123;SDS011;48506;48.202;16.274;2023-03-31T14:52:57;4.03;;;1.90;;
49123;SDS011;48506;48.202;16.274;2023-03-31T14:55:26;6.57;;;2.53;;
49123;SDS011;48506;48.202;16.274;2023-03-31T14:57:55;4.55;;;2.13;;
49123;SDS011;48506;48.202;16.274;2023-03-31T15:00:27;4.10;;;2.08;;
49123;SDS011;48506;48.202;16.274;2023-03-31T15:02:57;7.18;;;2.55;;
49123;SDS011;48506;48.202;16.274;2023-03-31T15:05:28;3.63;;;2.17;;
49123;SDS011;48506;48.202;16.274;2023-03-31T15:07:57;3.53;;;2.55;;
49123;SDS011;48506;48.202;16.274;2023-03-31T15:13:00;5.25;;;1.70;;
49123;SDS011;48506;48.202;16.274;2023-03-31T15:15:32;4.75;;;1.42;;
49123;SDS011;48506;48.202;16.274;2023-03-31T15:17:58;2.13;;;1.60;;
49123;SDS011;48506;48.202;16.274;2023-03-31T15:23:17;3.47;;;1.35;;
49123;SDS011;48506;48.202;16.274;2023-03-31T15:25:50;1.10;;;1.00;;
49123;SDS011;48506;48.202;16.274;2023-03-31T15:28:22;4.43;;;0.95;;
49123;SDS011;48506;48.202;16.274;2023-03-31T15:30:52;3.83;;;1.00;;
49123;SDS011;48506;48.202;16.274;2023-03-31T15:33:21;3.45;;;0.98;;
49123;SDS011;48506;48.202;16.274;2023-03-31T15:36:07;1.73;;;0.80;;
49123;SDS011;48506;48.202;16.274;2023-03-31T15:38:35;1.73;;;0.90;;
49123;SDS011;48506;48.202;16.274;2023-03-31T15:41:02;2.45;;;0.80;;
49123;SDS011;48506;48.202;16.274;2023-03-31T15:43:49;2.92;;;1.30;;
49123;SDS011;48506;48.202;16.274;2023-03-31T15:49:03;1.95;;;0.95;;
49123;SDS011;48506;48.202;16.274;2023-03-31T15:51:35;2.75;;;1.42;;
49123;SDS011;48506;48.202;16.274;2023-03-31T15:54:25;1.63;;;1.13;;
49123;SDS011;48506;48.202;16.274;2023-03-31T15:56:59;1.48;;;1.08;;
49123;SDS011;48506;48.202;16.274;2023-03-31T15:59:28;2.97;;;1.10;;
49123;SDS011;48506;48.202;16.274;2023-03-31T16:01:55;2.03;;;1.17;;
49123;SDS011;48506;48.202;16.274;2023-03-31T16:04:28;3.03;;;1.45;;
49123;SDS011;48506;48.202;16.274;2023-03-31T16:07:20;3.70;;;0.90;;
49123;SDS011;48506;48.202;16.274;2023-03-31T16:12:34;2.63;;;0.90;;
49123;SDS011;48506;48.202;16.274;2023-03-31T16:15:17;1.80;;;1.30;;
49123;SDS011;48506;48.202;16.274;2023-03-31T16:18:17;1.48;;;1.20;;
49123;SDS011;48506;48.202;16.274;2023-03-31T16:20:54;3.25;;;1.05;;
49123;SDS011;48506;48.202;16.274;2023-03-31T16:23:25;2.20;;;1.15;;
49123;SDS011;48506;48.202;16.274;2023-03-31T16:25:54;2.60;;;1.38;;
49123;SDS011;48506;48.202;16.274;2023-03-31T16:28:31;2.53;;;1.20;;
49123;SDS011;48506;48.202;16.274;2023-03-31T16:31:02;3.65;;;1.67;;
49123;SDS011;48506;48.202;16.274;2023-03-31T16:33:30;3.55;;;0.93;;
49123;SDS011;48506;48.202;16.274;2023-03-31T16:38:46;1.45;;;1.10;;
49123;SDS011;48506;48.202;16.274;2023-03-31T16:41:13;4.85;;;1.77;;
49123;SDS011;48506;48.202;16.274;2023-03-31T16:43:40;1.70;;;1.17;;
49123;SDS011;48506;48.202;16.274;2023-03-31T16:46:10;1.58;;;1.00;;
49123;SDS011;48506;48.202;16.274;2023-03-31T16:48:36;1.67;;;1.10;;
49123;SDS011;48506;48.202;16.274;2023-03-31T16:51:02;3.05;;;1.60;;
49123;SDS011;48506;48.202;16.274;2023-03-31T16:53:30;2.53;;;1.30;;
49123;SDS011;48506;48.202;16.274;2023-03-31T16:55:58;3.13;;;1.23;;
49123;SDS011;48506;48.202;16.274;2023-03-31T16:58:25;2.25;;;1.30;;
49123;SDS011;48506;48.202;16.274;2023-03-31T17:00:55;3.80;;;1.38;;
49123;SDS011;48506;48.202;16.274;2023-03-31T17:03:22;2.53;;;1.48;;
49123;SDS011;48506;48.202;16.274;2023-03-31T17:05:52;4.15;;;1.35;;
49123;SDS011;48506;48.202;16.274;2023-03-31T17:08:21;3.33;;;1.30;;
49123;SDS011;48506;48.202;16.274;2023-03-31T17:11:01;1.77;;;1.20;;
49123;SDS011;48506;48.202;16.274;2023-03-31T17:13:29;4.43;;;1.33;;
49123;SDS011;48506;48.202;16.274;2023-03-31T17:15:57;3.28;;;1.30;;
49123;SDS011;48506;48.202;16.274;2023-03-31T17:18:25;2.63;;;1.52;;
49123;SDS011;48506;48.202;16.274;2023-03-31T17:20:52;3.60;;;1.38;;
49123;SDS011;48506;48.202;16.274;2023-03-31T17:23:18;2.53;;;1.40;;
49123;SDS011;48506;48.202;16.274;2023-03-31T17:25:49;3.20;;;1.40;;
49123;SDS011;48506;48.202;16.274;2023-03-31T17:28:18;2.88;;;1.60;;
49123;SDS011;48506;48.202;16.274;2023-03-31T17:30:45;6.60;;;1.98;;
49123;SDS011;48506;48.202;16.274;2023-03-31T17:33:14;5.55;;;2.05;;
49123;SDS011;48506;48.202;16.274;2023-03-31T17:35:43;3.70;;;2.55;;
49123;SDS011;48506;48.202;16.274;2023-03-31T17:38:09;3.67;;;2.40;;
49123;SDS011;48506;48.202;16.274;2023-03-31T17:40:39;5.60;;;2.15;;
49123;SDS011;48506;48.202;16.274;2023-03-31T17:43:05;3.47;;;2.00;;
49123;SDS011;48506;48.202;16.274;2023-03-31T17:45:32;3.20;;;1.90;;